Time;durP1;ratioP1;P1;durP2;ratioP2;P2;SDS_P1;SDS_P2;PMS_P1;PMS_P2;Temp;Humidity;BMP_temperature;BMP_pressure;BME280_temperature;BME280_humidity;BME280_pressure;Samples;Min_cycle;Max_cycle;Signal;HPM_P1;HPM_P2
2020/12/20 00:02:22;;;;;;;6.57;5.97;;;;;;;;;;4962286;28;20205;-94
2020/12/20 00:04:54;;;;;;;7.20;6.47;;;;;;;;;;4962861;29;20634;-94
2020/12/20 00:07:30;;;;;;;6.22;5.45;;;;;;;;;;4963250;29;20197;-93
2020/12/20 00:09:57;;;;;;;6.72;6.07;;;;;;;;;;4963543;29;20204;-93
2020/12/20 00:12:25;;;;;;;6.60;6.00;;;;;;;;;;4963808;29;20464;-91
2020/12/20 00:14:55;;;;;;;6.32;5.72;;;;;;;;;;4963637;29;20201;-91
2020/12/20 00:17:22;;;;;;;7.88;6.85;;;;;;;;;;4963059;29;20221;-90
2020/12/20 00:19:49;;;;;;;7.28;6.57;;;;;;;;;;4963260;29;20256;-87
2020/12/20 00:22:17;;;;;;;6.68;5.93;;;;;;;;;;4962913;29;20273;-86
2020/12/20 00:24:44;;;;;;;6.90;6.03;;;;;;;;;;4962932;29;20268;-89
2020/12/20 00:27:11;;;;;;;6.40;5.80;;;;;;;;;;4963475;29;20189;-87
2020/12/20 00:29:40;;;;;;;5.78;5.22;;;;;;;;;;4963451;29;20489;-91
2020/12/20 00:32:09;;;;;;;6.75;6.05;;;;;;;;;;4963563;29;20204;-91
2020/12/20 00:34:36;;;;;;;7.68;6.55;;;;;;;;;;4963340;29;20565;-88
2020/12/20 00:37:04;;;;;;;7.00;6.30;;;;;;;;;;4963230;29;20598;-88
2020/12/20 00:39:32;;;;;;;7.88;6.75;;;;;;;;;;4963165;29;20197;-89
2020/12/20 00:42:00;;;;;;;6.80;6.18;;;;;;;;;;4962944;29;20193;-93
2020/12/20 00:44:28;;;;;;;6.47;5.38;;;;;;;;;;4963203;29;20589;-89
2020/12/20 00:46:56;;;;;;;7.88;6.78;;;;;;;;;;4963158;29;20185;-90
2020/12/20 00:49:24;;;;;;;7.28;6.25;;;;;;;;;;4962995;29;20224;-91
2020/12/20 00:51:51;;;;;;;6.28;5.68;;;;;;;;;;4962653;29;20543;-86
2020/12/20 00:54:23;;;;;;;6.82;6.13;;;;;;;;;;4954119;29;20194;-86
2020/12/20 00:56:51;;;;;;;6.72;6.03;;;;;;;;;;4952541;29;20257;-87
2020/12/20 00:59:18;;;;;;;7.10;6.13;;;;;;;;;;4953742;29;20186;-86
2020/12/20 01:01:45;;;;;;;6.97;6.38;;;;;;;;;;4953425;29;20289;-87
2020/12/20 01:04:12;;;;;;;7.60;6.90;;;;;;;;;;4951425;29;20556;-86
2020/12/20 01:06:39;;;;;;;6.75;6.13;;;;;;;;;;4948749;29;20204;-87
2020/12/20 01:09:07;;;;;;;6.20;5.53;;;;;;;;;;4950327;29;20216;-87
2020/12/20 01:11:34;;;;;;;7.38;6.07;;;;;;;;;;4952478;28;20212;-87
2020/12/20 01:14:04;;;;;;;6.93;6.22;;;;;;;;;;4968259;28;20308;-87
2020/12/20 01:16:31;;;;;;;6.72;6.10;;;;;;;;;;4980965;28;20232;-88
2020/12/20 01:18:58;;;;;;;9.10;7.03;;;;;;;;;;4969653;28;20217;-87
2020/12/20 01:21:26;;;;;;;7.53;6.38;;;;;;;;;;4953798;29;20194;-86
2020/12/20 01:23:53;;;;;;;6.63;6.03;;;;;;;;;;4952463;29;20185;-87
2020/12/20 01:26:22;;;;;;;6.53;5.97;;;;;;;;;;4952452;29;20190;-85
2020/12/20 01:28:49;;;;;;;9.80;6.13;;;;;;;;;;4951076;29;20464;-87
2020/12/20 01:31:17;;;;;;;6.80;6.10;;;;;;;;;;4952237;29;20547;-87
2020/12/20 01:33:44;;;;;;;7.03;6.32;;;;;;;;;;4958378;28;20195;-88
2020/12/20 01:36:13;;;;;;;6.78;6.07;;;;;;;;;;4953738;29;20198;-85
2020/12/20 01:38:40;;;;;;;6.43;5.63;;;;;;;;;;4951316;29;20178;-87
2020/12/20 01:41:08;;;;;;;6.63;6.00;;;;;;;;;;4952653;29;20196;-86
2020/12/20 01:43:46;;;;;;;7.78;7.00;;;;;;;;;;4951774;29;20190;-87
2020/12/20 01:46:16;;;;;;;7.32;6.63;;;;;;;;;;4951313;29;20209;-86
2020/12/20 01:48:44;;;;;;;7.90;7.13;;;;;;;;;;4950728;29;20224;-88
2020/12/20 01:51:12;;;;;;;7.00;6.30;;;;;;;;;;4950738;29;20189;-86
2020/12/20 01:53:40;;;;;;;5.97;5.47;;;;;;;;;;4955624;28;20207;-84
2020/12/20 01:56:08;;;;;;;7.90;5.93;;;;;;;;;;4956163;28;20505;-86
2020/12/20 01:58:37;;;;;;;7.25;6.47;;;;;;;;;;4951787;29;20210;-84
2020/12/20 02:01:05;;;;;;;7.53;6.82;;;;;;;;;;4952021;29;20182;-88
2020/12/20 02:03:34;;;;;;;7.30;6.30;;;;;;;;;;4952261;29;20181;-87
2020/12/20 02:06:03;;;;;;;7.25;6.55;;;;;;;;;;4952152;29;20204;-87
2020/12/20 02:08:30;;;;;;;7.88;5.85;;;;;;;;;;4950330;29;20237;-86
2020/12/20 02:11:08;;;;;;;6.90;6.28;;;;;;;;;;4955732;29;20248;-88
2020/12/20 02:13:35;;;;;;;6.68;5.82;;;;;;;;;;4961480;29;20204;-88
2020/12/20 02:16:03;;;;;;;5.82;5.32;;;;;;;;;;4961191;29;20189;-86
2020/12/20 02:18:30;;;;;;;6.57;5.97;;;;;;;;;;4960811;29;20255;-86
2020/12/20 02:20:58;;;;;;;7.30;6.57;;;;;;;;;;4961163;29;20219;-87
2020/12/20 02:23:26;;;;;;;6.03;5.43;;;;;;;;;;4961026;29;20201;-87
2020/12/20 02:25:52;;;;;;;6.95;5.60;;;;;;;;;;4960051;28;20197;-87
2020/12/20 02:28:21;;;;;;;6.65;5.93;;;;;;;;;;4960701;29;20296;-87
2020/12/20 02:30:48;;;;;;;6.57;5.97;;;;;;;;;;4960856;29;20464;-85
2020/12/20 02:33:15;;;;;;;7.32;6.57;;;;;;;;;;4960962;29;20185;-86
2020/12/20 02:35:46;;;;;;;7.82;7.13;;;;;;;;;;4960896;29;20197;-87
2020/12/20 02:38:15;;;;;;;8.23;7.45;;;;;;;;;;4960495;29;20209;-87
2020/12/20 02:40:43;;;;;;;7.97;7.13;;;;;;;;;;4960655;29;20182;-87
2020/12/20 02:43:10;;;;;;;6.60;5.97;;;;;;;;;;4960733;29;20216;-85
2020/12/20 02:45:36;;;;;;;7.63;6.93;;;;;;;;;;4960715;29;20189;-85
2020/12/20 02:48:03;;;;;;;6.78;6.15;;;;;;;;;;4960684;29;20228;-86
2020/12/20 02:50:30;;;;;;;8.60;7.25;;;;;;;;;;4960767;29;20193;-87
2020/12/20 02:52:57;;;;;;;6.95;6.25;;;;;;;;;;4960476;29;20178;-88
2020/12/20 02:55:24;;;;;;;7.93;7.10;;;;;;;;;;4960748;29;20455;-85
2020/12/20 02:57:52;;;;;;;7.50;6.75;;;;;;;;;;4960008;28;20235;-87
2020/12/20 03:00:20;;;;;;;7.70;6.88;;;;;;;;;;4960292;29;20251;-86
2020/12/20 03:02:48;;;;;;;6.68;5.85;;;;;;;;;;4960248;29;20188;-88
2020/12/20 03:05:17;;;;;;;7.68;6.88;;;;;;;;;;4960427;29;20566;-87
2020/12/20 03:07:44;;;;;;;7.10;6.50;;;;;;;;;;4960384;29;20276;-87
2020/12/20 03:10:11;;;;;;;6.80;6.20;;;;;;;;;;4960091;29;20189;-86
2020/12/20 03:12:38;;;;;;;8.85;7.53;;;;;;;;;;4960508;29;20197;-87
2020/12/20 03:15:06;;;;;;;8.27;7.47;;;;;;;;;;4960367;29;20202;-88
2020/12/20 03:17:33;;;;;;;7.93;7.00;;;;;;;;;;4959856;29;20216;-87
2020/12/20 03:20:00;;;;;;;7.50;6.78;;;;;;;;;;4960322;29;20197;-88
2020/12/20 03:22:27;;;;;;;8.75;7.93;;;;;;;;;;4960369;29;20193;-88
2020/12/20 03:24:54;;;;;;;8.27;6.85;;;;;;;;;;4959956;29;20193;-89
2020/12/20 03:27:21;;;;;;;7.93;7.13;;;;;;;;;;4959936;29;20272;-87
2020/12/20 03:29:48;;;;;;;9.45;7.63;;;;;;;;;;4960274;29;20193;-88
2020/12/20 03:32:16;;;;;;;7.93;7.13;;;;;;;;;;4960295;29;20458;-88
2020/12/20 03:34:43;;;;;;;8.65;7.25;;;;;;;;;;4960208;29;20477;-89
2020/12/20 03:37:10;;;;;;;7.90;6.97;;;;;;;;;;4964016;28;20544;-88
2020/12/20 03:39:37;;;;;;;8.85;7.93;;;;;;;;;;4966835;28;20201;-86
2020/12/20 03:42:04;;;;;;;8.43;7.43;;;;;;;;;;4966108;29;20197;-86
2020/12/20 03:44:31;;;;;;;9.02;6.63;;;;;;;;;;4966180;29;20276;-86
2020/12/20 03:46:57;;;;;;;8.27;7.43;;;;;;;;;;4966201;28;20216;-86
2020/12/20 03:49:25;;;;;;;8.05;7.15;;;;;;;;;;4966229;29;20236;-86
2020/12/20 03:51:52;;;;;;;9.52;7.72;;;;;;;;;;4966109;28;20201;-87
2020/12/20 03:54:19;;;;;;;7.47;6.78;;;;;;;;;;4966118;29;20196;-86
2020/12/20 03:56:46;;;;;;;7.72;7.00;;;;;;;;;;4966067;28;20307;-86
2020/12/20 03:59:13;;;;;;;9.05;7.97;;;;;;;;;;4966027;28;20208;-87
2020/12/20 04:01:40;;;;;;;8.85;6.82;;;;;;;;;;4966119;28;20272;-89
2020/12/20 04:04:07;;;;;;;8.07;7.28;;;;;;;;;;4966157;29;20273;-89
2020/12/20 04:06:34;;;;;;;7.03;6.32;;;;;;;;;;4966057;29;20561;-89
2020/12/20 04:09:01;;;;;;;7.43;6.65;;;;;;;;;;4965976;28;20196;-89
2020/12/20 04:11:28;;;;;;;8.05;7.18;;;;;;;;;;4966381;28;20196;-89
2020/12/20 04:13:55;;;;;;;8.00;7.20;;;;;;;;;;4966367;29;20300;-89
2020/12/20 04:16:22;;;;;;;7.22;6.60;;;;;;;;;;4966283;28;20194;-88
2020/12/20 04:18:49;;;;;;;6.57;5.35;;;;;;;;;;4965786;29;20685;-89
2020/12/20 04:21:16;;;;;;;8.55;6.68;;;;;;;;;;4966112;29;20563;-89
2020/12/20 04:23:44;;;;;;;7.28;6.53;;;;;;;;;;4966218;28;20272;-89
2020/12/20 04:26:11;;;;;;;9.00;8.00;;;;;;;;;;4966024;28;20199;-89
2020/12/20 04:28:38;;;;;;;7.03;6.32;;;;;;;;;;4966093;29;20185;-88
2020/12/20 04:31:05;;;;;;;8.40;7.60;;;;;;;;;;4966377;29;20215;-88
2020/12/20 04:33:32;;;;;;;6.95;6.25;;;;;;;;;;4965982;29;20197;-86
2020/12/20 04:35:59;;;;;;;6.88;6.18;;;;;;;;;;4965934;29;20186;-86
2020/12/20 04:38:26;;;;;;;7.90;6.07;;;;;;;;;;4965628;29;20209;-86
2020/12/20 04:40:53;;;;;;;8.18;7.28;;;;;;;;;;4965551;29;20267;-86
2020/12/20 04:43:22;;;;;;;8.73;7.15;;;;;;;;;;4966072;29;20197;-87
2020/12/20 04:45:53;;;;;;;7.35;6.65;;;;;;;;;;4965607;29;20268;-87
2020/12/20 04:48:21;;;;;;;7.47;6.68;;;;;;;;;;4963171;28;20459;-87
2020/12/20 04:50:48;;;;;;;8.02;7.05;;;;;;;;;;4962841;29;20193;-86
2020/12/20 04:53:15;;;;;;;8.88;7.22;;;;;;;;;;4962616;29;20205;-86
2020/12/20 04:55:42;;;;;;;7.78;6.55;;;;;;;;;;4962468;29;20440;-86
2020/12/20 04:58:11;;;;;;;9.32;5.93;;;;;;;;;;4962413;29;20217;-85
2020/12/20 05:00:38;;;;;;;6.57;5.88;;;;;;;;;;4962300;29;20579;-86
2020/12/20 05:03:05;;;;;;;6.38;5.72;;;;;;;;;;4962390;29;20205;-87
2020/12/20 05:05:32;;;;;;;7.15;6.22;;;;;;;;;;4962254;29;20186;-87
2020/12/20 05:07:59;;;;;;;7.07;6.38;;;;;;;;;;4962444;29;20200;-87
2020/12/20 05:10:39;;;;;;;7.35;6.50;;;;;;;;;;4962483;29;20196;-88
2020/12/20 05:13:06;;;;;;;7.90;6.90;;;;;;;;;;4962672;29;20217;-87
2020/12/20 05:15:34;;;;;;;7.75;6.90;;;;;;;;;;4962396;29;20281;-87
2020/12/20 05:18:05;;;;;;;8.10;6.40;;;;;;;;;;4962183;29;20233;-88
2020/12/20 05:20:38;;;;;;;8.02;7.10;;;;;;;;;;4962160;29;20178;-87
2020/12/20 05:23:06;;;;;;;9.32;8.05;;;;;;;;;;4962101;29;20197;-87
2020/12/20 05:25:34;;;;;;;11.70;8.40;;;;;;;;;;4962416;29;20189;-88
2020/12/20 05:28:14;;;;;;;8.05;7.25;;;;;;;;;;4961960;29;20248;-87
2020/12/20 05:30:43;;;;;;;9.20;6.90;;;;;;;;;;4961854;29;20638;-87
2020/12/20 05:33:11;;;;;;;11.18;6.85;;;;;;;;;;4962107;29;20481;-87
2020/12/20 05:35:38;;;;;;;9.32;7.78;;;;;;;;;;4962160;29;20460;-87
2020/12/20 05:38:07;;;;;;;7.55;6.53;;;;;;;;;;4961851;29;20236;-88
2020/12/20 05:40:36;;;;;;;7.43;6.53;;;;;;;;;;4961794;29;20183;-87
2020/12/20 05:43:07;;;;;;;8.90;7.43;;;;;;;;;;4961634;29;20194;-87
2020/12/20 05:45:36;;;;;;;13.52;7.65;;;;;;;;;;4962089;29;20193;-89
2020/12/20 05:48:15;;;;;;;7.80;7.00;;;;;;;;;;4961854;29;20225;-87
2020/12/20 05:50:51;;;;;;;8.75;7.82;;;;;;;;;;4961861;29;20189;-88
2020/12/20 05:53:24;;;;;;;9.55;8.05;;;;;;;;;;4961866;29;20196;-88
2020/12/20 05:55:51;;;;;;;9.13;8.02;;;;;;;;;;4961745;28;20189;-89
2020/12/20 05:58:18;;;;;;;8.98;7.35;;;;;;;;;;4961770;29;20212;-89
2020/12/20 06:00:46;;;;;;;8.32;7.50;;;;;;;;;;4962078;28;20205;-88
2020/12/20 06:03:15;;;;;;;8.57;7.65;;;;;;;;;;4961814;29;20194;-87
2020/12/20 06:05:44;;;;;;;9.05;7.78;;;;;;;;;;4961673;29;20198;-89
2020/12/20 06:08:12;;;;;;;10.45;8.65;;;;;;;;;;4961552;29;20224;-89
2020/12/20 06:10:42;;;;;;;8.90;8.00;;;;;;;;;;4961108;29;20200;-87
2020/12/20 06:13:11;;;;;;;8.70;7.80;;;;;;;;;;4961381;29;20194;-88
2020/12/20 06:15:41;;;;;;;9.15;7.90;;;;;;;;;;4961400;29;20255;-88
2020/12/20 06:18:11;;;;;;;10.02;8.48;;;;;;;;;;4961089;29;20586;-88
2020/12/20 06:20:55;;;;;;;8.32;7.53;;;;;;;;;;4961057;29;20193;-88
2020/12/20 06:23:24;;;;;;;10.02;8.45;;;;;;;;;;4961229;29;20193;-87
2020/12/20 06:25:53;;;;;;;9.95;8.55;;;;;;;;;;4961511;29;20452;-90
2020/12/20 06:28:24;;;;;;;8.85;7.82;;;;;;;;;;4961502;29;20499;-89
2020/12/20 06:30:51;;;;;;;9.25;7.50;;;;;;;;;;4961354;29;20185;-88
2020/12/20 06:33:31;;;;;;;10.68;8.80;;;;;;;;;;4961089;29;20181;-90
2020/12/20 06:36:02;;;;;;;10.55;7.57;;;;;;;;;;4961418;29;20201;-89
2020/12/20 06:38:30;;;;;;;10.27;9.23;;;;;;;;;;4960727;29;20583;-89
2020/12/20 06:40:56;;;;;;;10.57;7.93;;;;;;;;;;4960770;29;20190;-89
2020/12/20 06:43:31;;;;;;;9.98;8.40;;;;;;;;;;4960663;29;20193;-88
2020/12/20 06:45:59;;;;;;;8.88;7.97;;;;;;;;;;4960933;29;20181;-91
2020/12/20 06:48:37;;;;;;;8.80;7.90;;;;;;;;;;4960828;29;20295;-90
2020/12/20 06:51:07;;;;;;;9.57;8.43;;;;;;;;;;4960564;29;20185;-91
2020/12/20 06:53:52;;;;;;;11.38;9.93;;;;;;;;;;4960650;29;20509;-90
2020/12/20 06:56:20;;;;;;;11.88;10.23;;;;;;;;;;4960988;28;20237;-90
2020/12/20 06:58:48;;;;;;;11.90;10.50;;;;;;;;;;4960850;29;20227;-90
2020/12/20 07:01:35;;;;;;;10.73;9.63;;;;;;;;;;4960575;29;20193;-91
2020/12/20 07:04:02;;;;;;;9.93;8.85;;;;;;;;;;4960620;29;20209;-88
2020/12/20 07:06:30;;;;;;;10.55;8.52;;;;;;;;;;4960532;29;20193;-88
2020/12/20 07:09:03;;;;;;;9.40;8.40;;;;;;;;;;4960554;29;20189;-88
2020/12/20 07:11:30;;;;;;;11.77;8.80;;;;;;;;;;4960012;28;20221;-90
2020/12/20 07:13:58;;;;;;;10.68;9.18;;;;;;;;;;4960545;29;20467;-89
2020/12/20 07:16:37;;;;;;;11.00;9.70;;;;;;;;;;4960175;29;20565;-91
2020/12/20 07:19:05;;;;;;;9.80;8.20;;;;;;;;;;4960026;29;20220;-91
2020/12/20 07:22:06;;;;;;;11.60;10.40;;;;;;;;;;4960166;29;20190;-90
2020/12/20 07:24:34;;;;;;;11.50;8.77;;;;;;;;;;4960491;29;20550;-90
2020/12/20 07:27:03;;;;;;;11.30;9.55;;;;;;;;;;4960723;29;20205;-90
2020/12/20 07:29:32;;;;;;;11.75;9.60;;;;;;;;;;4960509;29;20556;-90
2020/12/20 07:32:03;;;;;;;12.98;10.43;;;;;;;;;;4960158;29;20181;-91
2020/12/20 07:34:30;;;;;;;12.52;10.43;;;;;;;;;;4960510;29;20556;-87
2020/12/20 07:36:59;;;;;;;14.30;8.95;;;;;;;;;;4960437;29;20201;-90
2020/12/20 07:39:26;;;;;;;11.55;10.18;;;;;;;;;;4959900;29;20209;-89
2020/12/20 07:41:58;;;;;;;11.93;9.30;;;;;;;;;;4960127;29;20208;-89
2020/12/20 07:44:25;;;;;;;15.15;10.75;;;;;;;;;;4960097;29;20563;-90
2020/12/20 07:46:52;;;;;;;11.63;10.43;;;;;;;;;;4960089;29;20201;-90
2020/12/20 07:49:19;;;;;;;12.05;9.95;;;;;;;;;;4960273;29;20228;-88
2020/12/20 07:51:46;;;;;;;12.02;10.18;;;;;;;;;;4960422;29;20198;-89
2020/12/20 07:54:16;;;;;;;17.08;10.95;;;;;;;;;;4911339;29;20212;-89
2020/12/20 07:56:46;;;;;;;11.82;10.27;;;;;;;;;;4959734;29;20233;-89
2020/12/20 07:59:14;;;;;;;12.95;10.60;;;;;;;;;;4960009;29;20209;-88
2020/12/20 08:01:45;;;;;;;12.80;10.77;;;;;;;;;;4959819;29;20192;-89
2020/12/20 08:04:14;;;;;;;11.48;10.07;;;;;;;;;;4960053;29;20212;-88
2020/12/20 08:06:43;;;;;;;13.20;10.43;;;;;;;;;;4960067;29;20200;-88
2020/12/20 08:09:13;;;;;;;11.93;10.75;;;;;;;;;;4960053;29;20193;-88
2020/12/20 08:11:41;;;;;;;13.15;10.32;;;;;;;;;;4960276;29;20202;-89
2020/12/20 08:14:11;;;;;;;13.57;10.82;;;;;;;;;;4959970;29;20193;-89
2020/12/20 08:16:40;;;;;;;14.02;10.38;;;;;;;;;;4960293;29;20556;-89
2020/12/20 08:19:08;;;;;;;14.15;10.95;;;;;;;;;;4959735;29;20283;-89
2020/12/20 08:21:59;;;;;;;12.57;11.27;;;;;;;;;;4959725;29;20209;-89
2020/12/20 08:24:30;;;;;;;13.02;10.52;;;;;;;;;;4962267;29;20193;-88
2020/12/20 08:26:58;;;;;;;10.73;9.63;;;;;;;;;;4963497;29;20222;-86
2020/12/20 08:29:25;;;;;;;12.02;10.68;;;;;;;;;;4963386;29;20194;-87
2020/12/20 08:31:52;;;;;;;13.68;10.90;;;;;;;;;;4963122;29;20209;-87
2020/12/20 08:34:22;;;;;;;13.63;10.75;;;;;;;;;;4963389;29;20252;-89
2020/12/20 08:36:51;;;;;;;13.98;11.43;;;;;;;;;;4944471;28;20274;-86
2020/12/20 08:39:23;;;;;;;12.70;10.90;;;;;;;;;;4975185;28;20213;-91
2020/12/20 08:42:03;;;;;;;12.80;10.95;;;;;;;;;;4962301;28;20193;-89
2020/12/20 08:44:30;;;;;;;12.95;9.93;;;;;;;;;;4954267;29;20586;-89
2020/12/20 08:47:13;;;;;;;13.40;11.70;;;;;;;;;;4952946;29;20191;-88
2020/12/20 08:49:41;;;;;;;17.00;11.70;;;;;;;;;;4952995;29;20488;-88
2020/12/20 08:52:11;;;;;;;13.98;12.13;;;;;;;;;;4954461;29;20263;-89
2020/12/20 08:54:39;;;;;;;12.20;10.73;;;;;;;;;;4954007;29;20192;-88
2020/12/20 08:57:10;;;;;;;13.57;9.98;;;;;;;;;;4962800;28;20225;-89
2020/12/20 08:59:40;;;;;;;19.67;9.98;;;;;;;;;;4962680;28;20201;-90
2020/12/20 09:02:09;;;;;;;11.52;9.35;;;;;;;;;;4958999;28;20198;-89
2020/12/20 09:04:38;;;;;;;11.15;9.93;;;;;;;;;;4955438;29;20469;-88
2020/12/20 09:07:10;;;;;;;11.82;9.50;;;;;;;;;;4953514;29;20204;-89
2020/12/20 09:09:37;;;;;;;11.73;9.43;;;;;;;;;;4952842;29;20202;-89
2020/12/20 09:12:19;;;;;;;11.98;10.45;;;;;;;;;;4955317;29;20548;-90
2020/12/20 09:15:08;;;;;;;11.23;9.75;;;;;;;;;;4953325;29;20551;-90
2020/12/20 09:17:38;;;;;;;11.98;9.95;;;;;;;;;;4953937;29;20544;-89
2020/12/20 09:20:09;;;;;;;11.65;10.27;;;;;;;;;;4953098;29;20209;-90
2020/12/20 09:22:55;;;;;;;13.27;10.18;;;;;;;;;;4960538;28;20212;-89
2020/12/20 09:25:35;;;;;;;13.55;10.60;;;;;;;;;;4950513;29;20274;-90
2020/12/20 09:28:06;;;;;;;12.13;10.82;;;;;;;;;;4953222;29;20186;-90
2020/12/20 09:30:48;;;;;;;11.57;9.98;;;;;;;;;;4955709;28;20198;-91
2020/12/20 09:33:24;;;;;;;12.63;10.30;;;;;;;;;;4952877;29;20219;-92
2020/12/20 09:36:06;;;;;;;13.15;11.25;;;;;;;;;;4951828;29;20192;-91
2020/12/20 09:38:40;;;;;;;13.25;11.20;;;;;;;;;;4954578;28;20212;-91
2020/12/20 09:41:10;;;;;;;13.77;11.20;;;;;;;;;;4960445;28;20240;-93
2020/12/20 09:43:40;;;;;;;16.02;12.50;;;;;;;;;;4973045;28;20208;-90
2020/12/20 09:46:08;;;;;;;12.40;10.77;;;;;;;;;;4962155;29;20205;-91
2020/12/20 09:48:35;;;;;;;15.65;13.18;;;;;;;;;;4955197;29;20236;-90
2020/12/20 09:51:02;;;;;;;12.68;11.40;;;;;;;;;;4961829;29;20543;-89
2020/12/20 09:53:30;;;;;;;13.35;10.82;;;;;;;;;;4961827;29;20260;-87
2020/12/20 09:55:56;;;;;;;13.13;11.65;;;;;;;;;;4960812;28;20188;-89
2020/12/20 09:58:24;;;;;;;14.40;11.35;;;;;;;;;;4960764;28;20518;-88
2020/12/20 10:00:51;;;;;;;12.85;11.25;;;;;;;;;;4962502;28;20209;-89
2020/12/20 10:03:20;;;;;;;14.35;12.20;;;;;;;;;;4956870;28;20202;-89
2020/12/20 10:05:47;;;;;;;13.70;12.10;;;;;;;;;;4959434;28;20582;-89
2020/12/20 10:08:15;;;;;;;12.80;11.13;;;;;;;;;;4959052;29;20574;-93
2020/12/20 10:10:43;;;;;;;11.95;10.32;;;;;;;;;;4962393;29;20200;-92
2020/12/20 10:13:20;;;;;;;14.15;11.23;;;;;;;;;;4959828;29;20194;-89
2020/12/20 10:15:47;;;;;;;16.15;12.57;;;;;;;;;;4959577;29;20213;-93
2020/12/20 10:18:15;;;;;;;17.52;14.32;;;;;;;;;;4961156;29;20239;-89
2020/12/20 10:20:43;;;;;;;16.73;11.95;;;;;;;;;;4961541;29;20209;-90
2020/12/20 10:23:10;;;;;;;19.42;14.57;;;;;;;;;;4961154;29;20201;-91
2020/12/20 10:25:37;;;;;;;14.18;11.95;;;;;;;;;;4960573;29;20587;-88
2020/12/20 10:28:07;;;;;;;16.73;12.48;;;;;;;;;;4961321;29;20252;-89
2020/12/20 10:30:34;;;;;;;17.13;14.15;;;;;;;;;;4961106;29;20189;-91
2020/12/20 10:33:01;;;;;;;15.30;12.27;;;;;;;;;;4961238;29;20209;-93
2020/12/20 10:35:29;;;;;;;14.27;12.00;;;;;;;;;;4960945;29;20213;-91
2020/12/20 10:37:57;;;;;;;13.10;9.93;;;;;;;;;;4960846;29;20201;-90
2020/12/20 10:40:25;;;;;;;14.82;13.10;;;;;;;;;;4961039;29;20591;-87
2020/12/20 10:42:51;;;;;;;17.02;13.82;;;;;;;;;;4960842;29;20204;-88
2020/12/20 10:45:20;;;;;;;14.02;11.60;;;;;;;;;;4959897;28;20552;-89
2020/12/20 10:47:47;;;;;;;11.60;10.40;;;;;;;;;;4960321;29;20193;-91
2020/12/20 10:50:15;;;;;;;14.10;12.05;;;;;;;;;;4960650;29;20190;-90
2020/12/20 10:52:43;;;;;;;13.68;12.15;;;;;;;;;;4989071;23;20316;-90
2020/12/20 10:55:13;;;;;;;14.50;12.07;;;;;;;;;;4947196;29;20259;-90
2020/12/20 10:57:40;;;;;;;16.67;12.68;;;;;;;;;;4952170;29;20245;-88
2020/12/20 11:00:10;;;;;;;15.23;12.10;;;;;;;;;;4959910;29;20223;-93
2020/12/20 11:02:37;;;;;;;15.52;12.63;;;;;;;;;;4955687;29;20268;-93
2020/12/20 11:05:05;;;;;;;15.18;12.68;;;;;;;;;;4955264;29;20201;-95
2020/12/20 11:07:32;;;;;;;13.90;11.43;;;;;;;;;;4960804;29;20603;-93
2020/12/20 11:10:00;;;;;;;12.00;10.40;;;;;;;;;;4961008;29;20207;-93
2020/12/20 11:12:27;;;;;;;12.18;10.88;;;;;;;;;;4960691;29;20189;-93
2020/12/20 11:15:08;;;;;;;14.63;12.23;;;;;;;;;;4960528;29;20253;-94
2020/12/20 11:17:40;;;;;;;13.52;10.50;;;;;;;;;;4950721;29;20292;-93
2020/12/20 11:20:07;;;;;;;13.20;11.82;;;;;;;;;;4950893;29;20201;-95
2020/12/20 11:22:34;;;;;;;14.25;10.13;;;;;;;;;;4943184;29;20599;-94
2020/12/20 11:25:02;;;;;;;15.32;12.18;;;;;;;;;;4939635;29;20316;-94
2020/12/20 11:27:29;;;;;;;13.40;10.90;;;;;;;;;;4940930;29;20196;-93
2020/12/20 11:29:56;;;;;;;14.95;12.38;;;;;;;;;;4940748;29;20507;-92
2020/12/20 11:32:53;;;;;;;13.80;12.38;;;;;;;;;;4940500;29;20553;-92
2020/12/20 11:35:20;;;;;;;14.13;12.57;;;;;;;;;;4921580;29;20206;-93
2020/12/20 11:37:48;;;;;;;17.10;14.60;;;;;;;;;;4939153;29;20210;-92
2020/12/20 11:40:16;;;;;;;15.27;11.65;;;;;;;;;;4940953;29;20204;-92
2020/12/20 11:42:52;;;;;;;15.82;12.38;;;;;;;;;;4940733;29;20182;-92
2020/12/20 11:45:19;;;;;;;15.02;12.60;;;;;;;;;;4939001;29;20270;-94
2020/12/20 11:47:52;;;;;;;17.48;12.48;;;;;;;;;;4940805;29;20237;-95
2020/12/20 11:50:22;;;;;;;14.00;11.68;;;;;;;;;;4940667;29;20186;-94
2020/12/20 11:52:49;;;;;;;15.75;14.05;;;;;;;;;;4941601;29;20233;-93
2020/12/20 11:55:19;;;;;;;16.25;12.90;;;;;;;;;;4942939;29;20205;-93
2020/12/20 11:57:54;;;;;;;15.07;11.15;;;;;;;;;;4942807;29;20467;-92
2020/12/20 12:00:21;;;;;;;13.25;11.40;;;;;;;;;;4943738;29;20197;-94
2020/12/20 12:02:48;;;;;;;11.25;10.05;;;;;;;;;;4944742;29;20614;-93
2020/12/20 12:05:15;;;;;;;10.85;9.32;;;;;;;;;;4943054;29;20213;-95
2020/12/20 12:08:12;;;;;;;11.80;9.63;;;;;;;;;;4941679;29;20202;-96
2020/12/20 12:10:43;;;;;;;13.80;9.40;;;;;;;;;;4940727;29;20201;-95
2020/12/20 12:13:11;;;;;;;12.57;10.00;;;;;;;;;;4944444;29;20198;-92
2020/12/20 12:15:39;;;;;;;11.82;10.32;;;;;;;;;;4942001;29;20199;-89
2020/12/20 12:18:06;;;;;;;9.70;8.70;;;;;;;;;;4935834;29;20244;-89
2020/12/20 12:20:33;;;;;;;10.00;7.75;;;;;;;;;;4939146;29;20671;-88
2020/12/20 12:23:00;;;;;;;12.20;9.13;;;;;;;;;;4938183;29;20222;-90
2020/12/20 12:25:28;;;;;;;9.38;7.72;;;;;;;;;;4938688;29;20285;-88
2020/12/20 12:27:56;;;;;;;10.52;9.43;;;;;;;;;;4940323;29;20198;-90
2020/12/20 12:30:23;;;;;;;11.35;8.93;;;;;;;;;;4942519;29;20190;-88
2020/12/20 12:32:52;;;;;;;12.10;10.63;;;;;;;;;;4943527;29;20626;-88
2020/12/20 12:35:21;;;;;;;11.95;9.77;;;;;;;;;;4943575;29;20183;-89
2020/12/20 12:37:49;;;;;;;12.90;10.93;;;;;;;;;;4943501;29;20594;-89
2020/12/20 12:40:16;;;;;;;12.50;10.88;;;;;;;;;;4943641;29;20210;-89
2020/12/20 12:42:43;;;;;;;16.40;14.20;;;;;;;;;;4943263;29;20301;-90
2020/12/20 12:45:14;;;;;;;20.02;14.68;;;;;;;;;;4943373;29;20209;-89
2020/12/20 12:47:41;;;;;;;16.00;13.45;;;;;;;;;;4943192;29;20183;-89
2020/12/20 12:50:08;;;;;;;19.63;14.95;;;;;;;;;;4941506;29;20591;-90
2020/12/20 12:52:35;;;;;;;17.65;14.50;;;;;;;;;;4942597;29;20325;-89
2020/12/20 12:55:02;;;;;;;18.80;13.95;;;;;;;;;;4943065;29;20186;-89
2020/12/20 12:57:30;;;;;;;17.83;12.88;;;;;;;;;;4941054;29;20194;-89
2020/12/20 12:59:57;;;;;;;16.50;14.38;;;;;;;;;;4943135;29;20194;-90
2020/12/20 13:02:25;;;;;;;16.17;13.60;;;;;;;;;;4942812;29;20606;-88
2020/12/20 13:04:52;;;;;;;15.55;13.15;;;;;;;;;;4938503;29;20288;-90
2020/12/20 13:07:19;;;;;;;16.13;13.43;;;;;;;;;;4940872;29;20225;-88
2020/12/20 13:09:46;;;;;;;15.68;12.68;;;;;;;;;;4942320;29;20186;-89
2020/12/20 13:12:14;;;;;;;19.15;15.10;;;;;;;;;;4940640;29;20197;-86
2020/12/20 13:14:41;;;;;;;19.00;15.40;;;;;;;;;;4942883;29;20280;-87
2020/12/20 13:17:08;;;;;;;16.27;13.38;;;;;;;;;;4942881;29;20198;-89
2020/12/20 13:19:36;;;;;;;18.30;15.13;;;;;;;;;;4943582;29;20194;-90
2020/12/20 13:22:03;;;;;;;18.70;15.65;;;;;;;;;;4942698;29;20233;-89
2020/12/20 13:24:30;;;;;;;14.40;12.98;;;;;;;;;;4943632;29;20472;-90
2020/12/20 13:26:56;;;;;;;19.08;13.60;;;;;;;;;;4943674;29;20203;-92
2020/12/20 13:29:23;;;;;;;18.02;14.98;;;;;;;;;;4943474;29;20273;-91
2020/12/20 13:31:51;;;;;;;19.80;13.98;;;;;;;;;;4943337;29;20187;-91
2020/12/20 13:34:18;;;;;;;18.75;15.02;;;;;;;;;;4943109;29;20429;-91
2020/12/20 13:36:46;;;;;;;17.58;12.82;;;;;;;;;;4942958;29;20278;-91
2020/12/20 13:39:13;;;;;;;18.52;14.32;;;;;;;;;;4943036;29;20212;-90
2020/12/20 13:41:40;;;;;;;16.70;13.13;;;;;;;;;;4942984;29;20487;-90
2020/12/20 13:44:07;;;;;;;15.90;14.02;;;;;;;;;;4942886;29;20297;-90
2020/12/20 13:46:34;;;;;;;15.93;12.82;;;;;;;;;;4942774;29;20280;-90
2020/12/20 13:49:01;;;;;;;15.88;12.70;;;;;;;;;;4942887;29;20209;-91
2020/12/20 13:51:28;;;;;;;15.48;11.80;;;;;;;;;;4942476;29;20190;-90
2020/12/20 13:53:56;;;;;;;15.80;11.27;;;;;;;;;;4942494;29;20186;-90
2020/12/20 13:56:24;;;;;;;16.42;12.25;;;;;;;;;;4942552;29;20563;-90
2020/12/20 13:58:51;;;;;;;14.60;11.77;;;;;;;;;;4942523;29;20191;-90
2020/12/20 14:01:18;;;;;;;12.13;10.52;;;;;;;;;;4942689;29;20240;-90
2020/12/20 14:03:45;;;;;;;16.17;13.48;;;;;;;;;;4942623;29;20193;-88
2020/12/20 14:06:12;;;;;;;14.80;11.93;;;;;;;;;;4941867;29;20206;-88
2020/12/20 14:08:41;;;;;;;14.25;12.13;;;;;;;;;;4942696;29;20204;-91
2020/12/20 14:11:14;;;;;;;14.52;11.15;;;;;;;;;;4942572;29;20201;-90
2020/12/20 14:13:42;;;;;;;17.63;11.60;;;;;;;;;;4942751;29;20544;-91
2020/12/20 14:16:12;;;;;;;13.80;11.02;;;;;;;;;;4942763;29;20442;-89
2020/12/20 14:18:39;;;;;;;13.45;11.13;;;;;;;;;;4942289;29;20248;-90
2020/12/20 14:21:08;;;;;;;14.43;12.07;;;;;;;;;;4943945;29;20548;-93
2020/12/20 14:23:35;;;;;;;13.55;11.02;;;;;;;;;;4942502;29;20220;-90
2020/12/20 14:26:02;;;;;;;12.07;10.65;;;;;;;;;;4941936;29;20196;-90
2020/12/20 14:28:30;;;;;;;16.17;12.57;;;;;;;;;;4942219;29;20194;-90
2020/12/20 14:30:57;;;;;;;12.70;11.07;;;;;;;;;;4941804;29;20556;-90
2020/12/20 14:33:24;;;;;;;13.27;10.68;;;;;;;;;;4941216;29;20208;-90
2020/12/20 14:35:51;;;;;;;12.13;10.73;;;;;;;;;;4942023;29;20257;-90
2020/12/20 14:38:18;;;;;;;12.40;9.68;;;;;;;;;;4942268;29;20198;-91
2020/12/20 14:40:46;;;;;;;11.25;10.05;;;;;;;;;;4941875;29;20606;-92
2020/12/20 14:43:13;;;;;;;11.68;9.50;;;;;;;;;;4941945;29;20226;-93